Weather at Burnt Point Lighthouse Helipad

Public forecast

Using degrees Celsius for public forecast. Weather courtesy of forecast.io.

Closest aviation weather report (METAR) to Burnt Point Lighthouse Helipad

Report is more than 6 hours old.

Closest report is Gander International Airport / CFB Gander, 43.1 nm (79.8 km) SSW.

2022/11/14 15:00 (retrieved 2 years ago)

CYQX 141500Z 09023G28KT 3SM -FZRA BR OVC006 00/M01 A2973 RMK ST8 PRESFR SLP078

Closest aviation forecast (TAF) to Burnt Point Lighthouse Helipad

Forecast is more than 12 hours old.

Closest forecast is Gander International Airport / CFB Gander, 43.1 nm (79.8 km) SSW.

2023/02/22 18:42 (retrieved 1 year ago)

TAF TAF CYQX 221740Z 2218/2318 35015G25KT 3SM -SHSN BLSN OVC009 TEMPO 2218/2221 P6SM NSW BKN012 OVC120 FM222100 32015G25KT P6SM BKN015 TEMPO 2221/2304 P6SM -SHSN FM230400 30020G30KT P6SM BKN025 FM230700 30020G35KT P6SM -SHSN BKN030 FM231100 30020G35KT P6SM SCT030 BECMG 2316/2318 30018G28KT RMK NXT FCST BY 230000Z